Milbank, South Dakota
Current Conditions -  °F | °C
As of 6:34 AM on Wednesday 26 Nov 2014 (Local Time) from KVVV Reporting Station
Light Snow Light Snow  
Wind Chill: -17°   Ceiling: 1200
Heat Index: -8°   Visibility: 2.5mi
Dew Point: -10°   Wind: 20mph
Humidity: 86%   Direction: 340°NNW
Pressure: 30.14"   Gusts: NA
Location:  45.22°N, 96.63°W
Report Text: KVVV 261234Z AUTO 34017KT 2 1/2SM -SN OVC012 M08/M10 A3014 RMK AO2
Loading
Personal Weather Stations






























Interactive Weather Map New forecast layout! Learn more

10-Day Weather Forecast

Advertisements
Track Severe Weather on mobile